메인 페이지
METAR-TAF:

METAR-TAF

공항 :

콘셉시온, 칠레

위도: 36-46S, 경도: 073-03W, 고도: 12m

현재 날씨관측

예보는 2 시간 26분 전, 22:00시(UTC)에 발표되었습니다.
남서8kt
온도 17°C
습도 82%
기압 1016 hPa
시정 10km 이상
1500m 미만 상공 구름 및 적란운 없음

METAR: SCIE 172200Z 22008KT CAVOK 17/14 Q1016

시각: 20:26 (00:26 UTC)

예보

예보는 7 시간 56분 전, 16:30시(UTC)에 발표되었습니다.
예보 대상 시간: 17일 18시부터 18일 18시까지 (UTC)
서남서8kt
시정 10km 이상
1500m 미만 상공 구름 및 적란운 없음
전환 중
17일 21시부터 17일 23시까지 (UTC)
여러 방향의 바람 2kt
전환 중
18일 06시부터 18일 08시까지 (UTC)
5kt
시정: 6000m
일시적
18일 10시부터 18일 14시까지 (UTC)
kt
시정: 1200m
고도 200ft 상공 구름 많음
박무
전환 중
18일 14시부터 18일 16시까지 (UTC)
서남서4kt
시정 10km 이상
1500m 미만 상공 구름 및 적란운 없음

TAF: SCIE 171630Z 1718/1818 24008KT CAVOK TX21/1719Z TN11/1810Z BECMG 1721/1723 VRB02KT BECMG 1806/1808 17005KT 6000 NSC TEMPO 1810/1814 00000KT 1200 BR BKN002 BECMG 1814/1816 25004KT CAVOK

4,000개 이상의 공항 관측 자료 및 예보 (METAR 및 TAF 보고).

지도상에서 검색 가능한 기상관측소가 노란 점과 빨간 점으로 표시되어 있습니다.

기상관측소 명을 보려면 표시 위로 마우스를 이동하세요.

날씨 관측과 예보를 보려면 클릭하세요.

지도 변경 : 확대하려면 엑스 표시가 있는 녹색 버튼, 축소하려면 빼기 표시가 있는 녹색 버튼, 다음 페이지의 지도를 보려면 녹색 화살표를 클릭하세요.


METAR-TAF: